Time;durP1;ratioP1;P1;durP2;ratioP2;P2;SDS_P1;SDS_P2;PMS_P1;PMS_P2;Temp;Humidity;BMP_temperature;BMP_pressure;BME280_temperature;BME280_humidity;BME280_pressure;Samples;Min_cycle;Max_cycle;Signal;HPM_P1;HPM_P2
2022/07/23 00:00:35;;;;;;;7.40;6.70;;;19.10;1.00;;;;;;6273547;28;20237;-54
2022/07/23 00:03:41;;;;;;;6.47;5.97;;;19.10;1.00;;;;;;6287929;28;20233;-53
2022/07/23 00:06:44;;;;;;;6.60;6.30;;;19.00;1.00;;;;;;6304923;28;20256;-54
2022/07/23 00:09:48;;;;;;;6.67;6.37;;;19.00;1.00;;;;;;6257014;28;20234;-56
2022/07/23 00:12:51;;;;;;;6.43;6.03;;;19.00;1.00;;;;;;6257779;28;20317;-54
2022/07/23 00:15:55;;;;;;;6.33;5.93;;;19.00;1.00;;;;;;6254493;28;20234;-55
2022/07/23 00:19:01;;;;;;;6.80;6.23;;;18.90;1.00;;;;;;6256506;28;20761;-56
2022/07/23 00:22:04;;;;;;;6.40;6.10;;;18.90;1.00;;;;;;6260063;28;20731;-55
2022/07/23 00:25:09;;;;;;;6.67;6.17;;;18.90;1.00;;;;;;6279124;28;20388;-55
2022/07/23 00:28:30;;;;;;;7.53;7.03;;;18.80;1.00;;;;;;6281317;28;20248;-55
2022/07/23 00:31:33;;;;;;;7.90;7.30;;;18.80;1.00;;;;;;6266134;28;20229;-54
2022/07/23 00:34:36;;;;;;;7.13;6.73;;;18.90;1.00;;;;;;6253874;28;20263;-57
2022/07/23 00:37:39;;;;;;;7.73;7.13;;;18.90;1.00;;;;;;6304388;28;20715;-54
2022/07/23 00:40:43;;;;;;;7.00;6.47;;;18.90;1.00;;;;;;6259534;28;20248;-56
2022/07/23 00:43:46;;;;;;;7.63;6.97;;;18.90;1.00;;;;;;6254896;28;20287;-54
2022/07/23 00:46:52;;;;;;;7.30;6.70;;;18.90;1.00;;;;;;6257323;28;20230;-56
2022/07/23 00:49:55;;;;;;;7.37;6.87;;;18.90;1.00;;;;;;6257444;28;20284;-55
2022/07/23 00:52:59;;;;;;;7.53;7.13;;;18.90;1.00;;;;;;6264781;28;20324;-55
2022/07/23 00:56:03;;;;;;;6.73;6.30;;;18.80;1.00;;;;;;6268690;28;20308;-55
2022/07/23 00:59:08;;;;;;;7.13;6.53;;;18.80;1.00;;;;;;6277664;28;20248;-56
2022/07/23 01:02:11;;;;;;;7.10;6.50;;;18.80;1.00;;;;;;6274519;28;20282;-55
2022/07/23 01:05:14;;;;;;;7.33;6.83;;;18.80;1.00;;;;;;6268319;28;20325;-53
2022/07/23 01:08:17;;;;;;;7.00;6.60;;;18.80;1.00;;;;;;6280876;28;20493;-54
2022/07/23 01:11:26;;;;;;;6.97;6.53;;;18.70;1.00;;;;;;6273810;28;20726;-55
2022/07/23 01:14:29;;;;;;;9.73;7.90;;;18.70;1.00;;;;;;6253866;28;20371;-55
2022/07/23 01:17:32;;;;;;;7.40;6.83;;;18.70;1.00;;;;;;6251116;28;20392;-53
2022/07/23 01:20:35;;;;;;;7.57;6.93;;;18.70;1.00;;;;;;6255919;28;20291;-55
2022/07/23 01:23:39;;;;;;;6.77;6.40;;;18.70;1.00;;;;;;6270702;28;20230;-55
2022/07/23 01:26:45;;;;;;;8.10;7.37;;;18.60;1.00;;;;;;6282644;28;20439;-55
2022/07/23 01:29:48;;;;;;;7.30;6.87;;;18.60;1.00;;;;;;6267019;28;20686;-54
2022/07/23 01:32:51;;;;;;;7.70;7.20;;;18.60;1.00;;;;;;6271737;28;20335;-54
2022/07/23 01:35:54;;;;;;;7.13;6.73;;;18.50;1.00;;;;;;6310842;28;20312;-55
2022/07/23 01:38:59;;;;;;;8.10;7.33;;;18.60;1.00;;;;;;6264811;28;20450;-56
2022/07/23 01:42:02;;;;;;;8.00;7.27;;;18.40;1.00;;;;;;6261938;28;20766;-54
2022/07/23 01:45:06;;;;;;;8.33;7.57;;;18.40;1.00;;;;;;6259086;28;20234;-55
2022/07/23 01:48:09;;;;;;;8.90;7.83;;;18.30;1.00;;;;;;6263995;28;20440;-56
2022/07/23 01:51:13;;;;;;;8.60;7.80;;;18.40;1.00;;;;;;6285388;28;20229;-55
2022/07/23 01:54:17;;;;;;;8.13;7.63;;;18.30;1.00;;;;;;6282108;28;20371;-56
2022/07/23 01:57:20;;;;;;;8.27;7.57;;;18.30;1.00;;;;;;6284091;28;20316;-54
2022/07/23 02:00:23;;;;;;;8.00;7.20;;;18.20;1.00;;;;;;6282392;28;20241;-57
2022/07/23 02:03:26;;;;;;;8.10;7.40;;;18.20;1.00;;;;;;6285910;28;20233;-53
2022/07/23 02:06:29;;;;;;;8.43;7.83;;;18.20;1.00;;;;;;6296895;28;20287;-54
2022/07/23 02:09:34;;;;;;;8.73;8.03;;;18.20;1.00;;;;;;6309455;28;20241;-54
2022/07/23 02:12:37;;;;;;;8.33;7.50;;;18.20;1.00;;;;;;6261284;28;20899;-56
2022/07/23 02:15:40;;;;;;;9.07;8.37;;;18.30;1.00;;;;;;6258582;28;20328;-54
2022/07/23 02:18:43;;;;;;;8.27;7.67;;;18.30;1.00;;;;;;6259812;28;20737;-55
2022/07/23 02:21:46;;;;;;;8.93;8.10;;;18.30;1.00;;;;;;6262386;28;20276;-54
2022/07/23 02:24:50;;;;;;;10.07;7.37;;;18.30;1.00;;;;;;6276930;28;20286;-55
2022/07/23 02:27:53;;;;;;;8.17;6.77;;;18.40;1.00;;;;;;6285149;28;20332;-55
2022/07/23 02:30:56;;;;;;;6.97;6.57;;;18.40;1.00;;;;;;6270524;28;20975;-55
2022/07/23 02:33:59;;;;;;;7.60;7.07;;;18.40;1.00;;;;;;6275056;28;20316;-56
2022/07/23 02:37:02;;;;;;;7.80;7.10;;;18.40;1.00;;;;;;6285329;28;20921;-55
2022/07/23 02:40:08;;;;;;;7.63;7.07;;;18.40;1.00;;;;;;6282924;28;20320;-56
2022/07/23 02:43:11;;;;;;;7.50;6.90;;;18.30;1.00;;;;;;6260469;28;20365;-56
2022/07/23 02:46:14;;;;;;;8.43;7.63;;;18.30;1.00;;;;;;6258354;28;20533;-54
2022/07/23 02:49:17;;;;;;;7.73;7.17;;;18.30;1.00;;;;;;6285125;28;20231;-56
2022/07/23 02:52:20;;;;;;;8.50;6.93;;;18.20;1.00;;;;;;6311259;28;20274;-55
2022/07/23 02:55:25;;;;;;;7.20;6.60;;;18.20;1.00;;;;;;6283732;28;20251;-54
2022/07/23 02:58:28;;;;;;;8.27;7.43;;;18.10;1.00;;;;;;6284067;28;20705;-55
2022/07/23 03:01:31;;;;;;;7.90;7.13;;;18.00;1.00;;;;;;6282797;28;20437;-54
2022/07/23 03:04:34;;;;;;;7.37;6.87;;;18.10;1.00;;;;;;6279596;28;20233;-56
2022/07/23 03:07:37;;;;;;;7.73;7.03;;;18.00;1.00;;;;;;6280596;28;20244;-55
2022/07/23 03:10:41;;;;;;;7.43;6.80;;;18.00;1.00;;;;;;6259752;28;20295;-56
2022/07/23 03:13:44;;;;;;;7.43;6.83;;;18.00;1.00;;;;;;6257602;28;20252;-54
2022/07/23 03:16:49;;;;;;;8.10;7.30;;;18.00;1.00;;;;;;6258994;28;20321;-55
2022/07/23 03:19:52;;;;;;;7.23;6.63;;;17.90;1.00;;;;;;6259463;28;20257;-56
2022/07/23 03:22:55;;;;;;;9.67;8.00;;;18.00;1.00;;;;;;6268702;28;20268;-55
2022/07/23 03:25:59;;;;;;;7.53;6.70;;;18.00;1.00;;;;;;6283356;28;20848;-56
2022/07/23 03:29:03;;;;;;;6.93;6.53;;;18.00;1.00;;;;;;6278907;28;20530;-54
2022/07/23 03:32:07;;;;;;;7.33;6.73;;;17.90;1.00;;;;;;6268087;28;20726;-55
2022/07/23 03:35:10;;;;;;;12.30;6.73;;;17.90;1.00;;;;;;6287187;28;20315;-59
2022/07/23 03:38:14;;;;;;;6.67;6.23;;;17.90;1.00;;;;;;6286731;28;20225;-54
2022/07/23 03:41:18;;;;;;;8.47;6.03;;;17.70;1.00;;;;;;6280247;28;20243;-55
2022/07/23 03:44:21;;;;;;;7.07;6.37;;;17.80;1.00;;;;;;6283686;28;20237;-55
2022/07/23 03:47:24;;;;;;;6.37;5.80;;;17.80;1.00;;;;;;6281904;28;20237;-54
2022/07/23 03:50:27;;;;;;;7.00;6.33;;;17.80;1.00;;;;;;6277291;28;20240;-55
2022/07/23 03:53:30;;;;;;;8.00;5.73;;;17.80;1.00;;;;;;6254264;28;20516;-54
2022/07/23 03:56:34;;;;;;;6.57;5.93;;;17.70;1.00;;;;;;6279903;28;20316;-54
2022/07/23 03:59:37;;;;;;;6.33;5.70;;;17.70;1.00;;;;;;6286513;28;20339;-54
2022/07/23 04:02:41;;;;;;;6.60;6.00;;;17.60;1.00;;;;;;6282487;28;20233;-57
2022/07/23 04:05:44;;;;;;;7.53;6.20;;;17.60;1.00;;;;;;6284878;28;20774;-56
2022/07/23 04:08:47;;;;;;;7.73;6.00;;;17.60;1.00;;;;;;6286842;28;20269;-55
2022/07/23 04:11:51;;;;;;;7.03;6.00;;;17.60;1.00;;;;;;6280017;28;20559;-55
2022/07/23 04:14:54;;;;;;;7.50;6.27;;;17.50;1.00;;;;;;6283896;28;20648;-54
2022/07/23 04:17:57;;;;;;;6.13;5.30;;;17.50;1.00;;;;;;6284221;28;20313;-55
2022/07/23 04:21:00;;;;;;;7.67;5.10;;;17.50;1.00;;;;;;6278934;28;20681;-55
2022/07/23 04:24:03;;;;;;;5.20;4.80;;;17.50;1.00;;;;;;6282054;28;20324;-54
2022/07/23 04:27:07;;;;;;;5.27;4.40;;;17.50;1.00;;;;;;6287160;28;20229;-54
2022/07/23 04:30:11;;;;;;;4.90;4.40;;;17.50;1.00;;;;;;6279044;28;20720;-56
2022/07/23 04:33:14;;;;;;;4.50;4.10;;;17.50;1.00;;;;;;6280553;28;20292;-59
2022/07/23 04:36:17;;;;;;;7.17;4.20;;;17.50;1.00;;;;;;6279352;28;20646;-54
2022/07/23 04:39:19;;;;;;;6.80;4.57;;;17.40;1.00;;;;;;6283181;28;20527;-55
2022/07/23 04:42:24;;;;;;;6.10;5.00;;;17.40;1.00;;;;;;6280922;28;20312;-56
2022/07/23 04:45:27;;;;;;;4.90;4.53;;;17.40;1.00;;;;;;6271269;28;20289;-56
2022/07/23 04:48:32;;;;;;;7.00;4.27;;;17.30;1.00;;;;;;6282678;28;20237;-53
2022/07/23 04:51:34;;;;;;;4.90;4.57;;;17.10;1.00;;;;;;6284274;28;20733;-54
2022/07/23 04:54:37;;;;;;;7.20;4.63;;;17.10;1.00;;;;;;6278488;28;20301;-56
2022/07/23 04:57:42;;;;;;;5.20;4.70;;;17.00;1.00;;;;;;6284669;28;20271;-55
2022/07/23 05:00:45;;;;;;;6.23;4.50;;;16.90;1.00;;;;;;6277885;28;20324;-56
2022/07/23 05:03:48;;;;;;;5.97;4.27;;;16.90;1.00;;;;;;6280816;28;20316;-57
2022/07/23 05:06:51;;;;;;;5.40;4.83;;;16.80;1.00;;;;;;6280918;28;20476;-55
2022/07/23 05:09:54;;;;;;;5.20;4.70;;;16.90;1.00;;;;;;6282433;28;20774;-55
2022/07/23 05:12:58;;;;;;;4.77;4.37;;;16.80;1.00;;;;;;6276370;28;20239;-55
2022/07/23 05:16:01;;;;;;;4.90;4.60;;;16.70;1.00;;;;;;6278091;28;20512;-56
2022/07/23 05:19:04;;;;;;;5.27;4.63;;;16.70;1.00;;;;;;6288022;28;20251;-56
2022/07/23 05:22:07;;;;;;;4.70;4.30;;;16.70;1.00;;;;;;6280731;28;20229;-55
2022/07/23 05:25:10;;;;;;;5.70;4.40;;;16.70;1.00;;;;;;6279390;28;20798;-56
2022/07/23 05:28:15;;;;;;;4.37;4.03;;;16.70;1.00;;;;;;6280638;28;20763;-53
2022/07/23 05:31:19;;;;;;;5.00;4.50;;;16.60;1.00;;;;;;6279405;28;20754;-56
2022/07/23 05:34:22;;;;;;;5.20;4.70;;;16.60;1.00;;;;;;6280662;28;20237;-55
2022/07/23 05:37:25;;;;;;;5.50;4.53;;;16.60;1.00;;;;;;6280496;28;20237;-55
2022/07/23 05:40:29;;;;;;;6.87;4.50;;;16.50;1.00;;;;;;6276260;28;20370;-56
2022/07/23 05:43:33;;;;;;;4.47;4.17;;;16.50;1.00;;;;;;6281673;28;20456;-55
2022/07/23 05:46:36;;;;;;;6.30;4.97;;;16.50;1.00;;;;;;6274747;28;20225;-56
2022/07/23 05:49:39;;;;;;;4.80;4.40;;;16.50;1.00;;;;;;6279125;28;20263;-56
2022/07/23 05:52:42;;;;;;;5.17;4.13;;;16.50;1.00;;;;;;6273872;28;20240;-56
2022/07/23 05:55:45;;;;;;;5.83;4.87;;;16.40;1.00;;;;;;6285677;28;20346;-54
2022/07/23 05:58:49;;;;;;;4.37;4.10;;;16.50;1.00;;;;;;6275964;28;20739;-56
2022/07/23 06:01:52;;;;;;;4.77;4.43;;;16.40;1.00;;;;;;6286149;28;20322;-54
2022/07/23 06:04:55;;;;;;;7.17;4.40;;;16.40;1.00;;;;;;6289077;28;20773;-55
2022/07/23 06:07:58;;;;;;;6.73;4.70;;;16.40;1.00;;;;;;6289078;28;20584;-57
2022/07/23 06:11:01;;;;;;;6.63;4.50;;;16.40;1.00;;;;;;6271143;28;20290;-55
2022/07/23 06:14:06;;;;;;;4.93;4.50;;;16.40;1.00;;;;;;6277512;28;20295;-56
2022/07/23 06:17:09;;;;;;;6.43;4.73;;;16.40;1.00;;;;;;6290031;28;20226;-56
2022/07/23 06:20:12;;;;;;;6.23;5.70;;;16.30;1.00;;;;;;6274686;28;20241;-55
2022/07/23 06:23:15;;;;;;;7.20;4.93;;;16.30;1.00;;;;;;6276776;28;20591;-54
2022/07/23 06:26:18;;;;;;;5.27;4.80;;;16.30;1.00;;;;;;6280480;28;20240;-56
2022/07/23 06:29:22;;;;;;;7.13;5.50;;;16.40;1.00;;;;;;6274832;28;20383;-55
2022/07/23 06:32:25;;;;;;;5.17;4.77;;;16.40;1.00;;;;;;6287800;28;20233;-54
2022/07/23 06:35:28;;;;;;;5.27;4.87;;;16.40;1.00;;;;;;6281301;28;20827;-54
2022/07/23 06:38:31;;;;;;;5.70;5.30;;;16.40;1.00;;;;;;6285337;28;20343;-56
2022/07/23 06:41:34;;;;;;;5.70;5.37;;;16.40;1.00;;;;;;6283575;28;20225;-55
2022/07/23 06:44:39;;;;;;;6.13;5.60;;;16.40;1.00;;;;;;6285025;28;20229;-56
2022/07/23 06:47:42;;;;;;;5.83;5.40;;;16.50;1.00;;;;;;6281078;28;20238;-55
2022/07/23 06:50:44;;;;;;;6.17;5.87;;;16.50;1.00;;;;;;6283805;28;20686;-55
2022/07/23 06:53:47;;;;;;;6.70;5.53;;;16.60;1.00;;;;;;6289452;28;20229;-55
2022/07/23 06:56:51;;;;;;;5.90;5.40;;;16.70;1.00;;;;;;6282002;28;20371;-56
2022/07/23 06:59:55;;;;;;;5.93;5.50;;;16.80;1.00;;;;;;6287938;28;20232;-55
2022/07/23 07:02:58;;;;;;;6.13;5.73;;;16.80;1.00;;;;;;6291878;28;20324;-57
2022/07/23 07:06:02;;;;;;;6.07;5.20;;;16.90;1.00;;;;;;6268458;28;20512;-55
2022/07/23 07:09:05;;;;;;;6.87;6.27;;;16.90;1.00;;;;;;6278413;28;20315;-55
2022/07/23 07:12:08;;;;;;;6.73;6.20;;;16.90;1.00;;;;;;6276625;28;20264;-55
2022/07/23 07:15:13;;;;;;;5.70;5.40;;;16.90;1.00;;;;;;6277134;28;20237;-54
2022/07/23 07:18:16;;;;;;;6.20;5.70;;;16.90;1.00;;;;;;6282444;28;20371;-56
2022/07/23 07:21:19;;;;;;;6.20;5.60;;;16.90;1.00;;;;;;6287462;28;20234;-54
2022/07/23 07:24:22;;;;;;;6.00;5.60;;;16.90;1.00;;;;;;6285818;28;24852;-55
2022/07/23 07:27:31;;;;;;;7.73;5.33;;;17.10;1.00;;;;;;6286983;28;20702;-55
2022/07/23 07:30:35;;;;;;;7.13;6.53;;;17.20;1.00;;;;;;6280740;28;20382;-54
2022/07/23 07:33:38;;;;;;;9.43;6.70;;;17.30;1.00;;;;;;6270623;28;20605;-55
2022/07/23 07:36:43;;;;;;;6.67;6.10;;;17.40;1.00;;;;;;6253731;28;20316;-56
2022/07/23 07:39:45;;;;;;;8.27;6.40;;;17.50;1.00;;;;;;6286838;28;20628;-55
2022/07/23 07:42:49;;;;;;;6.73;6.10;;;17.50;1.00;;;;;;6296653;28;20233;-55
2022/07/23 07:45:54;;;;;;;6.97;6.30;;;17.70;1.00;;;;;;6277735;28;20233;-54
2022/07/23 07:48:57;;;;;;;6.97;6.27;;;17.90;1.00;;;;;;6287261;28;20256;-55
2022/07/23 07:52:00;;;;;;;8.77;6.63;;;18.00;1.00;;;;;;6287662;28;20303;-56
2022/07/23 07:55:03;;;;;;;8.00;7.23;;;18.20;1.00;;;;;;6285065;28;20823;-54
2022/07/23 07:58:07;;;;;;;9.50;7.10;;;18.30;1.00;;;;;;6283805;28;20430;-55
2022/07/23 08:01:11;;;;;;;6.53;6.03;;;18.40;1.00;;;;;;6287056;28;20309;-56
2022/07/23 08:04:14;;;;;;;6.90;6.13;;;18.40;1.00;;;;;;6281965;28;20746;-53
2022/07/23 08:07:17;;;;;;;7.00;6.30;;;18.40;1.00;;;;;;6292049;28;20379;-57
2022/07/23 08:10:20;;;;;;;6.77;6.20;;;18.50;1.00;;;;;;6282995;28;20229;-60
2022/07/23 08:13:23;;;;;;;6.80;6.20;;;18.60;1.00;;;;;;6278485;28;20328;-60
2022/07/23 08:16:28;;;;;;;6.37;5.80;;;18.70;1.00;;;;;;6286133;28;20314;-54
2022/07/23 08:19:31;;;;;;;6.43;5.90;;;18.80;1.00;;;;;;6279552;28;20233;-54
2022/07/23 08:22:47;;;;;;;10.10;6.80;;;19.00;1.00;;;;;;6287313;28;20371;-55
2022/07/23 08:25:50;;;;;;;5.90;5.33;;;19.20;1.00;;;;;;6288757;28;20629;-56
2022/07/23 08:28:53;;;;;;;6.30;5.73;;;19.40;1.00;;;;;;6273478;28;20250;-54
2022/07/23 08:31:58;;;;;;;6.33;5.30;;;19.60;1.00;;;;;;6284428;28;20374;-54
2022/07/23 08:35:01;;;;;;;6.27;5.20;;;19.60;1.00;;;;;;6276943;28;20228;-54
2022/07/23 08:38:06;;;;;;;7.00;5.10;;;19.60;1.00;;;;;;6272998;28;20709;-54
2022/07/23 08:41:09;;;;;;;6.00;5.47;;;19.70;1.00;;;;;;6283902;28;20312;-55
2022/07/23 08:44:13;;;;;;;5.30;4.90;;;19.80;1.00;;;;;;6278609;28;20294;-55
2022/07/23 08:47:17;;;;;;;5.30;4.90;;;19.80;1.00;;;;;;6280715;28;20237;-54
2022/07/23 08:50:22;;;;;;;7.73;5.10;;;19.70;1.00;;;;;;6285090;28;20239;-56
2022/07/23 08:53:27;;;;;;;4.77;4.37;;;19.80;1.00;;;;;;6273211;28;20242;-54
2022/07/23 08:56:30;;;;;;;4.77;4.40;;;20.00;1.00;;;;;;6287653;28;20661;-56
2022/07/23 08:59:33;;;;;;;5.03;4.50;;;20.40;1.00;;;;;;6283098;28;20229;-55
2022/07/23 09:02:42;;;;;;;5.30;4.30;;;20.60;1.00;;;;;;6283748;28;20326;-54
2022/07/23 09:05:46;;;;;;;4.70;4.30;;;20.80;1.00;;;;;;6285197;28;20360;-55
2022/07/23 09:08:49;;;;;;;4.30;3.90;;;20.80;1.00;;;;;;6279011;28;20347;-55
2022/07/23 09:12:03;;;;;;;4.03;3.73;;;20.90;1.00;;;;;;6278387;28;20294;-55
2022/07/23 09:15:08;;;;;;;4.47;4.10;;;20.90;1.00;;;;;;6272981;28;20240;-55
2022/07/23 09:18:16;;;;;;;6.00;4.37;;;21.00;1.00;;;;;;6286459;28;20347;-55
2022/07/23 09:21:23;;;;;;;5.20;4.00;;;21.00;1.00;;;;;;6280457;28;20368;-56
2022/07/23 09:24:26;;;;;;;10.77;4.33;;;21.30;1.00;;;;;;6271311;28;20229;-55
2022/07/23 09:27:47;;;;;;;6.90;4.20;;;21.40;1.00;;;;;;6267359;28;20255;-56
2022/07/23 09:30:56;;;;;;;9.13;4.90;;;21.40;1.00;;;;;;6273010;28;20234;-56
2022/07/23 09:34:10;;;;;;;4.97;4.57;;;21.50;1.00;;;;;;6277132;28;20233;-55
2022/07/23 09:37:15;;;;;;;4.00;3.60;;;21.40;1.00;;;;;;6273868;28;20229;-55
2022/07/23 09:40:18;;;;;;;5.07;4.77;;;21.40;1.00;;;;;;6282716;28;20408;-55
2022/07/23 09:43:28;;;;;;;4.70;4.30;;;21.40;1.00;;;;;;6275859;28;20679;-55
2022/07/23 09:46:39;;;;;;;5.40;4.67;;;21.40;1.00;;;;;;6274104;28;20375;-58
2022/07/23 09:49:59;;;;;;;5.13;4.70;;;21.30;1.00;;;;;;6280904;28;20345;-56
2022/07/23 09:53:02;;;;;;;5.57;5.10;;;21.20;1.00;;;;;;6290378;28;20231;-55
2022/07/23 09:56:06;;;;;;;5.20;4.90;;;21.30;1.00;;;;;;6292339;28;20237;-56
2022/07/23 09:59:09;;;;;;;5.20;4.80;;;21.60;1.00;;;;;;6279084;28;20570;-55
2022/07/23 10:02:14;;;;;;;6.07;5.57;;;21.60;1.00;;;;;;6285784;28;20528;-55
2022/07/23 10:05:20;;;;;;;5.13;4.73;;;21.70;1.00;;;;;;6291079;28;20312;-55
2022/07/23 10:08:24;;;;;;;6.07;5.60;;;21.70;1.00;;;;;;6284571;28;20245;-56
2022/07/23 10:11:29;;;;;;;5.67;5.00;;;21.80;1.00;;;;;;6289166;28;20768;-57
2022/07/23 10:14:34;;;;;;;5.80;5.43;;;21.80;1.00;;;;;;6283480;28;20267;-55
2022/07/23 10:17:37;;;;;;;5.30;4.70;;;21.90;1.00;;;;;;6288608;28;20359;-55
2022/07/23 10:20:42;;;;;;;4.97;4.53;;;22.00;1.00;;;;;;6287204;28;20237;-55
2022/07/23 10:23:52;;;;;;;4.57;4.37;;;22.10;1.00;;;;;;6275388;28;20314;-56
2022/07/23 10:27:05;;;;;;;4.70;4.27;;;22.40;1.00;;;;;;6270113;28;20230;-55
2022/07/23 10:30:13;;;;;;;4.27;4.10;;;22.70;1.00;;;;;;6274912;28;20325;-55
2022/07/23 10:33:27;;;;;;;6.73;4.47;;;22.70;1.00;;;;;;6283348;28;20295;-56
2022/07/23 10:36:40;;;;;;;4.27;4.07;;;22.60;1.00;;;;;;6288955;28;20222;-55
2022/07/23 10:39:44;;;;;;;5.10;4.70;;;22.30;1.00;;;;;;6284854;28;20241;-55
2022/07/23 10:42:48;;;;;;;4.77;4.33;;;22.10;1.00;;;;;;6289380;28;20343;-55
2022/07/23 10:45:51;;;;;;;6.63;4.60;;;22.20;1.00;;;;;;6280826;28;20328;-55
2022/07/23 10:49:25;;;;;;;5.17;4.63;;;22.20;1.00;;;;;;6298194;28;20738;-56
2022/07/23 10:52:30;;;;;;;5.43;4.20;;;22.40;1.00;;;;;;6277200;28;20395;-54
2022/07/23 10:55:45;;;;;;;4.57;4.37;;;22.50;1.00;;;;;;6280222;28;20229;-56
2022/07/23 10:58:50;;;;;;;4.93;4.40;;;22.70;1.00;;;;;;6279891;28;20321;-56
2022/07/23 11:01:53;;;;;;;5.50;5.00;;;22.80;1.00;;;;;;6282578;28;20392;-54
2022/07/23 11:05:01;;;;;;;4.77;4.37;;;22.70;1.00;;;;;;6287330;28;20674;-57
2022/07/23 11:08:26;;;;;;;5.67;5.10;;;22.80;1.00;;;;;;6288232;28;20229;-57
2022/07/23 11:11:29;;;;;;;5.53;4.97;;;22.70;1.00;;;;;;6281524;28;20718;-55
2022/07/23 11:14:59;;;;;;;4.93;4.53;;;22.70;1.00;;;;;;6275231;28;20230;-56
2022/07/23 11:18:02;;;;;;;5.00;3.90;;;22.80;1.00;;;;;;6265913;28;20630;-63
2022/07/23 11:21:39;;;;;;;6.80;4.67;;;23.00;1.00;;;;;;6283172;28;20318;-54
2022/07/23 11:24:52;;;;;;;7.43;5.00;;;23.10;1.00;;;;;;6281471;28;20304;-54
2022/07/23 11:27:56;;;;;;;5.07;4.77;;;22.90;1.00;;;;;;6283572;28;20525;-54
2022/07/23 11:31:00;;;;;;;5.30;4.80;;;23.00;1.00;;;;;;6289967;28;20316;-56
2022/07/23 11:34:28;;;;;;;5.60;5.10;;;22.90;1.00;;;;;;6287659;28;20679;-56
2022/07/23 11:37:35;;;;;;;4.63;4.40;;;22.90;1.00;;;;;;6282690;28;20232;-56
2022/07/23 11:40:40;;;;;;;5.07;4.67;;;23.00;1.00;;;;;;6281449;28;20230;-56
2022/07/23 11:43:43;;;;;;;6.30;4.93;;;23.00;1.00;;;;;;6282502;28;20469;-54
2022/07/23 11:46:56;;;;;;;4.77;4.47;;;23.10;1.00;;;;;;6290565;28;20297;-55
2022/07/23 11:50:01;;;;;;;5.17;4.77;;;23.30;1.00;;;;;;6278940;28;20579;-55
2022/07/23 11:53:04;;;;;;;5.03;4.73;;;23.50;1.00;;;;;;6284358;28;20829;-54
2022/07/23 11:56:10;;;;;;;5.83;5.13;;;23.80;1.00;;;;;;6284099;28;20248;-55
2022/07/23 11:59:14;;;;;;;5.83;5.00;;;24.20;1.00;;;;;;6273257;28;20598;-55
2022/07/23 12:02:17;;;;;;;5.73;4.93;;;24.40;1.00;;;;;;6282512;28;20237;-55
2022/07/23 12:05:22;;;;;;;6.07;5.43;;;24.40;1.00;;;;;;6287908;28;20247;-53
2022/07/23 12:08:25;;;;;;;4.83;4.40;;;24.20;1.00;;;;;;6270698;28;20233;-55
2022/07/23 12:11:29;;;;;;;6.10;5.70;;;24.20;1.00;;;;;;6285117;28;20293;-55
2022/07/23 12:14:32;;;;;;;5.27;4.97;;;24.20;1.00;;;;;;6289398;28;20302;-54
2022/07/23 12:17:37;;;;;;;5.37;4.93;;;24.20;1.00;;;;;;6281809;28;20298;-54
2022/07/23 12:20:42;;;;;;;6.17;4.67;;;24.40;1.00;;;;;;6282655;28;20233;-54
2022/07/23 12:23:49;;;;;;;5.07;4.60;;;24.70;1.00;;;;;;6279580;28;20643;-55
2022/07/23 12:27:20;;;;;;;5.77;4.50;;;24.90;1.00;;;;;;6281134;28;20513;-55
2022/07/23 12:30:25;;;;;;;4.90;4.50;;;25.00;1.00;;;;;;6264126;28;20367;-55
2022/07/23 12:33:37;;;;;;;4.80;4.50;;;24.90;1.00;;;;;;6282473;28;20789;-55
2022/07/23 12:36:41;;;;;;;4.17;3.97;;;24.90;1.00;;;;;;6275905;28;20245;-54
2022/07/23 12:39:44;;;;;;;5.67;5.00;;;24.80;1.00;;;;;;6280495;28;20665;-54
2022/07/23 12:42:49;;;;;;;4.73;4.50;;;24.80;1.00;;;;;;6285371;28;20233;-54
2022/07/23 12:45:54;;;;;;;6.00;4.57;;;24.60;1.00;;;;;;6282197;28;20324;-53
2022/07/23 12:48:57;;;;;;;5.83;5.33;;;24.70;1.00;;;;;;6282487;28;20240;-55
2022/07/23 12:52:00;;;;;;;6.27;5.77;;;24.80;1.00;;;;;;6280412;28;20321;-55
2022/07/23 12:55:03;;;;;;;6.20;5.60;;;24.80;1.00;;;;;;6283847;28;20313;-55
2022/07/23 12:58:12;;;;;;;6.27;5.80;;;24.50;1.00;;;;;;6274974;28;20253;-55
2022/07/23 13:01:25;;;;;;;6.20;5.80;;;24.30;1.00;;;;;;6272557;28;20483;-56
2022/07/23 13:04:31;;;;;;;5.30;5.00;;;24.30;1.00;;;;;;6284190;28;20754;-54
2022/07/23 13:07:34;;;;;;;5.50;5.10;;;24.30;1.00;;;;;;6282004;28;20456;-66
2022/07/23 13:10:37;;;;;;;5.27;4.97;;;24.30;1.00;;;;;;6276934;28;20312;-56
2022/07/23 13:13:42;;;;;;;5.30;5.00;;;24.10;1.00;;;;;;6268465;28;20609;-54
2022/07/23 13:16:46;;;;;;;5.97;5.20;;;24.00;1.00;;;;;;6279553;28;20326;-57
2022/07/23 13:19:50;;;;;;;5.17;4.93;;;24.20;1.00;;;;;;6279992;28;20229;-54
2022/07/23 13:22:53;;;;;;;6.47;5.50;;;24.20;1.00;;;;;;6279060;28;20760;-53
2022/07/23 13:25:56;;;;;;;5.57;5.13;;;24.00;1.00;;;;;;6290499;28;20264;-54
2022/07/23 13:29:01;;;;;;;5.20;4.77;;;23.80;1.00;;;;;;6270662;28;20273;-54
2022/07/23 13:32:06;;;;;;;5.07;4.83;;;23.90;1.00;;;;;;6278450;28;20316;-54
2022/07/23 13:35:15;;;;;;;5.77;5.37;;;24.00;1.00;;;;;;6278156;28;20617;-55
2022/07/23 13:38:20;;;;;;;5.73;5.20;;;24.00;1.00;;;;;;6287121;28;20249;-55
2022/07/23 13:41:23;;;;;;;6.47;5.77;;;24.00;1.00;;;;;;6284991;28;20618;-53
2022/07/23 13:44:29;;;;;;;5.33;4.93;;;24.10;1.00;;;;;;6279631;28;20482;-55
2022/07/23 13:47:32;;;;;;;5.50;5.17;;;24.30;1.00;;;;;;6278303;28;20728;-53
2022/07/23 13:50:35;;;;;;;5.40;5.00;;;24.50;1.00;;;;;;6277897;28;20245;-53
2022/07/23 13:53:38;;;;;;;5.50;5.00;;;24.70;1.00;;;;;;6284630;28;20802;-55
2022/07/23 13:56:42;;;;;;;5.60;5.10;;;24.80;1.00;;;;;;6281356;28;20279;-54
2022/07/23 13:59:47;;;;;;;5.10;4.80;;;24.70;1.00;;;;;;6279807;28;20782;-56
2022/07/23 14:02:50;;;;;;;4.93;4.53;;;24.50;1.00;;;;;;6283052;28;20257;-56
2022/07/23 14:05:53;;;;;;;5.20;5.00;;;24.40;1.00;;;;;;6281310;28;20233;-55
2022/07/23 14:08:59;;;;;;;4.63;4.37;;;24.30;1.00;;;;;;6270475;28;20237;-54
2022/07/23 14:12:03;;;;;;;4.70;4.30;;;24.30;1.00;;;;;;6280717;28;20745;-55
2022/07/23 14:15:09;;;;;;;4.87;4.57;;;24.40;1.00;;;;;;6283857;28;20232;-55
2022/07/23 14:18:15;;;;;;;5.20;4.90;;;24.50;1.00;;;;;;6280482;28;20230;-54
2022/07/23 14:21:18;;;;;;;5.23;4.67;;;24.50;1.00;;;;;;6273672;28;20308;-54
2022/07/23 14:24:22;;;;;;;4.10;4.00;;;24.60;1.00;;;;;;6275718;28;20579;-55
2022/07/23 14:27:25;;;;;;;4.67;4.23;;;24.70;1.00;;;;;;6280546;28;20240;-54
2022/07/23 14:30:30;;;;;;;4.70;4.30;;;24.80;1.00;;;;;;6277824;28;20249;-55
2022/07/23 14:33:37;;;;;;;3.53;3.27;;;25.30;1.00;;;;;;6280655;28;20237;-55
2022/07/23 14:36:40;;;;;;;4.10;3.80;;;25.40;1.00;;;;;;6278279;28;20245;-54
2022/07/23 14:39:44;;;;;;;3.80;3.60;;;25.50;1.00;;;;;;6289343;28;20469;-55
2022/07/23 14:42:48;;;;;;;5.90;4.33;;;25.80;1.00;;;;;;6284838;28;20756;-55
2022/07/23 14:45:52;;;;;;;3.70;3.50;;;25.90;1.00;;;;;;6281064;28;20887;-55
2022/07/23 14:48:56;;;;;;;3.87;3.67;;;25.90;1.00;;;;;;6278499;28;20237;-54
2022/07/23 14:52:00;;;;;;;3.83;3.60;;;25.50;1.00;;;;;;6276600;28;20241;-56
2022/07/23 14:55:04;;;;;;;3.53;3.33;;;25.60;1.00;;;;;;6281990;28;20229;-53
2022/07/23 14:58:07;;;;;;;3.57;3.37;;;25.50;1.00;;;;;;6285112;28;20302;-54
2022/07/23 15:01:13;;;;;;;3.47;3.20;;;25.50;1.00;;;;;;6287931;28;20603;-57
2022/07/23 15:04:16;;;;;;;3.50;3.30;;;25.40;1.00;;;;;;6285509;28;20313;-54
2022/07/23 15:07:38;;;;;;;3.43;3.27;;;25.30;1.00;;;;;;6283953;28;20791;-56
2022/07/23 15:10:41;;;;;;;3.43;3.20;;;25.10;1.00;;;;;;6279441;28;20248;-56
2022/07/23 15:13:44;;;;;;;3.60;3.30;;;25.00;1.00;;;;;;6281843;28;20256;-55
2022/07/23 15:16:50;;;;;;;3.60;3.40;;;24.80;1.00;;;;;;6287228;28;20511;-56
2022/07/23 15:19:54;;;;;;;3.07;2.90;;;24.90;1.00;;;;;;6281847;28;20315;-56
2022/07/23 15:22:57;;;;;;;3.70;3.40;;;25.10;1.00;;;;;;6278984;28;20678;-57
2022/07/23 15:26:01;;;;;;;2.97;2.87;;;25.50;1.00;;;;;;6280515;28;20251;-54
2022/07/23 15:29:05;;;;;;;3.23;3.03;;;25.40;1.00;;;;;;6284973;28;20532;-56
2022/07/23 15:32:11;;;;;;;4.97;3.07;;;25.50;1.00;;;;;;6281098;28;20249;-55
2022/07/23 15:35:14;;;;;;;3.37;3.13;;;25.30;1.00;;;;;;6282467;28;20701;-53
2022/07/23 15:38:17;;;;;;;2.67;2.47;;;25.50;1.00;;;;;;6288325;28;20243;-56
2022/07/23 15:41:27;;;;;;;2.57;2.47;;;25.70;1.00;;;;;;6281817;28;20468;-56
2022/07/23 15:44:30;;;;;;;3.50;3.00;;;25.80;1.00;;;;;;6280390;28;21272;-56
2022/07/23 15:47:35;;;;;;;3.07;2.93;;;25.80;1.00;;;;;;6279941;28;20320;-55
2022/07/23 15:50:38;;;;;;;2.97;2.77;;;25.90;1.00;;;;;;6285215;28;20660;-55
2022/07/23 15:53:47;;;;;;;2.97;2.80;;;26.20;1.00;;;;;;6283467;28;20233;-55
2022/07/23 15:56:51;;;;;;;2.93;2.83;;;26.20;1.00;;;;;;6295314;28;20317;-57
2022/07/23 15:59:56;;;;;;;3.00;2.80;;;26.10;1.00;;;;;;6280168;28;20290;-56
2022/07/23 16:03:00;;;;;;;3.27;3.07;;;25.90;1.00;;;;;;6286347;28;20239;-55
2022/07/23 16:06:09;;;;;;;2.80;2.60;;;25.70;1.00;;;;;;6280041;28;20283;-57
2022/07/23 16:09:19;;;;;;;2.53;2.43;;;25.70;1.00;;;;;;6283258;28;20245;-54
2022/07/23 16:12:23;;;;;;;2.90;2.80;;;25.70;1.00;;;;;;6277307;28;20500;-55
2022/07/23 16:15:26;;;;;;;2.80;2.70;;;25.70;1.00;;;;;;6253487;28;20708;-56